createdAt,value
2018-10-21T00:00:23.030Z,101291.55
2018-10-21T00:02:51.938Z,101288.70
2018-10-21T00:05:20.887Z,101281.93
2018-10-21T00:07:49.754Z,101287.39
2018-10-21T00:10:18.684Z,101287.02
2018-10-21T00:12:47.971Z,101283.47
2018-10-21T00:15:17.032Z,101290.95
2018-10-21T00:17:45.952Z,101280.94
2018-10-21T00:20:14.941Z,101279.97
2018-10-21T00:22:43.842Z,101283.66
2018-10-21T00:25:12.760Z,101289.17
2018-10-21T00:27:41.728Z,101277.02
2018-10-21T00:30:10.697Z,101271.27
2018-10-21T00:32:44.718Z,101277.30
2018-10-21T00:35:13.637Z,101269.68
2018-10-21T00:37:42.620Z,101272.95
2018-10-21T00:40:11.598Z,101267.06
2018-10-21T00:42:40.866Z,101267.53
2018-10-21T00:45:10.857Z,101260.06
2018-10-21T00:47:39.835Z,101260.58
2018-10-21T00:50:10.169Z,101263.28
2018-10-21T00:52:39.084Z,101259.12
2018-10-21T00:55:08.917Z,101264.91
2018-10-21T00:57:37.800Z,101263.55
2018-10-21T01:00:08.756Z,101268.23
2018-10-21T01:02:37.932Z,101263.28
2018-10-21T01:05:07.583Z,101263.13
2018-10-21T01:07:36.473Z,101270.30
2018-10-21T01:10:06.365Z,101265.02
2018-10-21T01:12:35.385Z,101262.67
2018-10-21T01:15:04.485Z,101262.97
2018-10-21T01:17:34.786Z,101265.20
2018-10-21T01:20:04.099Z,101263.75
2018-10-21T01:22:33.076Z,101280.14
2018-10-21T01:25:02.024Z,101271.77
2018-10-21T01:27:30.959Z,101281.33
2018-10-21T01:29:59.915Z,101275.95
2018-10-21T01:32:28.838Z,101265.56
2018-10-21T01:34:57.768Z,101270.87
2018-10-21T01:37:32.172Z,101279.77
2018-10-21T01:40:34.860Z,101266.66
2018-10-21T01:43:04.119Z,101260.64
2018-10-21T01:45:32.987Z,101260.64
2018-10-21T01:48:03.337Z,101259.50
2018-10-21T01:50:32.399Z,101265.05
2018-10-21T01:53:02.366Z,101267.81
2018-10-21T01:55:31.308Z,101260.93
2018-10-21T01:58:00.593Z,101261.72
2018-10-21T02:00:30.074Z,101260.11
2018-10-21T02:02:59.408Z,101269.41
2018-10-21T02:05:28.558Z,101273.27
2018-10-21T02:07:57.558Z,101265.96
2018-10-21T02:10:26.596Z,101228.62
2018-10-21T02:12:55.912Z,101261.11
2018-10-21T02:15:25.226Z,101261.89
2018-10-21T02:17:54.156Z,101261.02
2018-10-21T02:20:23.796Z,101254.34
2018-10-21T02:22:52.995Z,101260.83
2018-10-21T02:25:21.939Z,101262.11
2018-10-21T02:27:51.931Z,101257.78
2018-10-21T02:30:24.183Z,101264.19
2018-10-21T02:32:53.864Z,101259.56
2018-10-21T02:35:22.942Z,101263.81
2018-10-21T02:37:52.433Z,101263.36
2018-10-21T02:41:30.765Z,101259.09
2018-10-21T02:43:59.702Z,101245.81
2018-10-21T02:46:28.858Z,101267.08
2018-10-21T02:48:58.640Z,101261.08
2018-10-21T02:51:27.520Z,101264.18
2018-10-21T02:53:56.423Z,101270.20
2018-10-21T02:56:25.342Z,101265.22
2018-10-21T02:58:54.244Z,101252.81
2018-10-21T03:01:23.086Z,101252.55
2018-10-21T03:03:52.094Z,101270.83
2018-10-21T03:06:21.003Z,101262.72
2018-10-21T03:08:49.902Z,101261.78
2018-10-21T03:11:18.849Z,101259.22
2018-10-21T03:13:47.973Z,101264.19
2018-10-21T03:16:16.860Z,101259.52
2018-10-21T03:18:45.768Z,101266.58
2018-10-21T03:21:14.837Z,101254.25
2018-10-21T03:23:43.651Z,101261.32
2018-10-21T03:26:12.539Z,101261.71
2018-10-21T03:28:41.528Z,101251.43
2018-10-21T03:31:10.427Z,101257.15
2018-10-21T03:33:39.384Z,101252.70
2018-10-21T03:36:08.258Z,101253.40
2018-10-21T03:38:37.149Z,101248.82
2018-10-21T03:41:06.190Z,101249.17
2018-10-21T03:43:35.197Z,101252.75
2018-10-21T03:46:04.151Z,101254.09
2018-10-21T03:48:32.957Z,101260.46
2018-10-21T03:51:01.985Z,101255.52
2018-10-21T03:53:30.827Z,101248.19
2018-10-21T03:55:59.786Z,101243.56
2018-10-21T03:58:28.759Z,101237.80
2018-10-21T04:00:57.619Z,101235.35
2018-10-21T04:03:26.708Z,101229.98
2018-10-21T04:05:55.562Z,101240.68
2018-10-21T04:08:24.692Z,101244.03
2018-10-21T04:10:55.062Z,101255.89
2018-10-21T04:13:23.971Z,101259.44
2018-10-21T04:15:54.314Z,101255.42
2018-10-21T04:18:23.271Z,101248.89
2018-10-21T04:20:52.242Z,101252.80
2018-10-21T04:23:21.172Z,101248.11
2018-10-21T04:25:51.359Z,101255.79
2018-10-21T04:28:20.339Z,101262.78
2018-10-21T04:30:49.229Z,101273.06
2018-10-21T04:33:49.511Z,101274.75
2018-10-21T04:36:21.320Z,101278.83
2018-10-21T04:40:01.693Z,101281.23
2018-10-21T04:42:31.033Z,101276.31
2018-10-21T04:45:00.423Z,101278.52
2018-10-21T04:47:29.732Z,101279.77
2018-10-21T04:49:58.807Z,101278.28
2018-10-21T04:52:28.700Z,101278.75
2018-10-21T04:55:03.794Z,101284.59
2018-10-21T04:57:32.784Z,101279.91
2018-10-21T05:00:03.010Z,101279.73
2018-10-21T05:02:32.430Z,101287.25
2018-10-21T05:05:01.432Z,101281.84
2018-10-21T05:07:30.455Z,101276.92
2018-10-21T05:09:59.288Z,101275.48
2018-10-21T05:12:28.321Z,101276.48
2018-10-21T05:14:57.227Z,101279.08
2018-10-21T05:17:26.272Z,101285.50
2018-10-21T05:19:55.184Z,101286.64
2018-10-21T05:22:24.059Z,101291.27
2018-10-21T05:24:53.035Z,101286.88
2018-10-21T05:27:22.200Z,101292.56
2018-10-21T05:29:51.175Z,101295.09
2018-10-21T05:32:20.080Z,101290.44
2018-10-21T05:34:49.075Z,101297.63
2018-10-21T05:37:18.031Z,101304.87
2018-10-21T05:39:48.211Z,101313.04
2018-10-21T05:42:18.470Z,101305.01
2018-10-21T05:44:47.363Z,101305.24
2018-10-21T05:47:16.328Z,101311.65
2018-10-21T05:49:45.219Z,101316.78
2018-10-21T05:52:14.418Z,101310.48
2018-10-21T05:54:44.224Z,101318.89
2018-10-21T05:57:14.414Z,101323.41
2018-10-21T05:59:43.400Z,101327.48
2018-10-21T06:02:12.365Z,101336.66
2018-10-21T06:04:41.336Z,101337.11
2018-10-21T06:07:10.246Z,101338.19
2018-10-21T06:09:39.135Z,101340.34
2018-10-21T06:12:08.079Z,101340.47
2018-10-21T06:14:37.122Z,101340.75
2018-10-21T06:17:38.290Z,101335.08
2018-10-21T06:20:17.616Z,101337.61
2018-10-21T06:22:47.249Z,101333.90
2018-10-21T06:25:16.160Z,101337.61
2018-10-21T06:27:45.068Z,101340.92
2018-10-21T06:30:14.166Z,101340.67
2018-10-21T06:32:43.073Z,101339.45
2018-10-21T06:35:12.071Z,101337.73
2018-10-21T06:37:41.097Z,101338.67
2018-10-21T06:40:11.598Z,101340.67
2018-10-21T06:42:40.559Z,101349.23
2018-10-21T06:45:10.728Z,101344.83
2018-10-21T06:47:39.695Z,101347.03
2018-10-21T06:50:15.426Z,101339.37
2018-10-21T06:52:44.282Z,101335.34
2018-10-21T06:55:13.653Z,101345.20
2018-10-21T06:57:44.382Z,101338.98
2018-10-21T07:00:13.287Z,101338.19
2018-10-21T07:02:42.210Z,101337.95
2018-10-21T07:05:23.064Z,101329.83
2018-10-21T07:07:53.670Z,101338.01
2018-10-21T07:10:22.575Z,101330.43
2018-10-21T07:12:51.871Z,101331.17
2018-10-21T07:15:25.022Z,101341.56
2018-10-21T07:17:53.917Z,101338.11
2018-10-21T07:20:24.299Z,101342.34
2018-10-21T07:22:54.576Z,101346.37
2018-10-21T07:25:23.489Z,101351.75
2018-10-21T07:27:52.426Z,101348.02
2018-10-21T07:30:22.732Z,101350.08
2018-10-21T07:32:51.621Z,101344.32
2018-10-21T07:35:20.483Z,101347.93
2018-10-21T07:37:50.679Z,101346.83
2018-10-21T07:40:19.703Z,101347.06
2018-10-21T07:42:48.578Z,101346.57
2018-10-21T07:45:20.487Z,101339.44
2018-10-21T07:47:49.450Z,101339.28
2018-10-21T07:50:18.359Z,101341.23
2018-10-21T07:52:47.258Z,101342.77
2018-10-21T07:55:18.402Z,101342.72
2018-10-21T07:57:47.722Z,101347.06
2018-10-21T08:00:16.903Z,101347.32
2018-10-21T08:02:47.255Z,101351.14
2018-10-21T08:05:27.608Z,101341.19
2018-10-21T08:08:09.400Z,101341.88
2018-10-21T08:10:38.286Z,101342.80
2018-10-21T08:13:08.040Z,101341.02
2018-10-21T08:15:36.948Z,101345.30
2018-10-21T08:18:06.162Z,101331.72
2018-10-21T08:20:36.562Z,101337.20
2018-10-21T08:23:05.971Z,101342.08
2018-10-21T08:25:34.859Z,101339.73
2018-10-21T08:28:03.901Z,101343.79
2018-10-21T08:30:32.827Z,101344.39
2018-10-21T08:33:01.870Z,101341.95
2018-10-21T08:35:30.831Z,101344.84
2018-10-21T08:37:59.828Z,101347.11
2018-10-21T08:40:29.075Z,101346.94
2018-10-21T08:42:58.040Z,101342.44
2018-10-21T08:45:27.194Z,101347.39
2018-10-21T08:47:56.148Z,101343.92
2018-10-21T08:50:25.144Z,101344.52
2018-10-21T08:52:54.173Z,101355.56
2018-10-21T08:55:23.155Z,101352.13
2018-10-21T08:57:52.091Z,101353.06
2018-10-21T09:00:21.226Z,101354.64
2018-10-21T09:02:50.188Z,101361.63
2018-10-21T09:05:19.861Z,101359.19
2018-10-21T09:07:49.093Z,101360.63
2018-10-21T09:10:18.709Z,101368.92
2018-10-21T09:12:47.591Z,101362.13
2018-10-21T09:15:18.000Z,101373.53
2018-10-21T09:17:47.316Z,101359.88
2018-10-21T09:20:18.838Z,101359.55
2018-10-21T09:22:47.817Z,101353.48
2018-10-21T09:25:16.975Z,101354.61
2018-10-21T09:27:46.015Z,101355.69
2018-10-21T09:30:16.351Z,101353.09
2018-10-21T09:32:45.426Z,101346.66
2018-10-21T09:35:16.691Z,101348.25
2018-10-21T09:37:45.762Z,101352.91
2018-10-21T09:40:19.373Z,101352.34
2018-10-21T09:42:49.015Z,101340.50
2018-10-21T09:45:19.504Z,101333.81
2018-10-21T09:47:48.745Z,101334.60
2018-10-21T09:50:17.689Z,101332.06
2018-10-21T09:52:46.793Z,101330.84
2018-10-21T09:55:18.711Z,101318.96
2018-10-21T09:57:48.485Z,101319.19
2018-10-21T10:00:22.480Z,101315.16
2018-10-21T10:02:56.468Z,101310.12
2018-10-21T10:05:25.503Z,101315.17
2018-10-21T10:07:55.393Z,101316.25
2018-10-21T10:10:25.006Z,101312.31
2018-10-21T10:12:54.095Z,101311.17
2018-10-21T10:15:23.173Z,101307.99
2018-10-21T10:17:52.261Z,101315.48
2018-10-21T10:20:22.629Z,101308.52
2018-10-21T10:22:51.728Z,101322.06
2018-10-21T10:25:20.802Z,101311.23
2018-10-21T10:27:51.066Z,101315.02
2018-10-21T10:30:20.078Z,101319.09
2018-10-21T10:32:49.018Z,101303.70
2018-10-21T10:35:18.010Z,101314.23
2018-10-21T10:37:46.974Z,101307.53
2018-10-21T10:40:16.018Z,101305.78
2018-10-21T10:42:44.993Z,101308.29
2018-10-21T10:45:13.933Z,101295.47
2018-10-21T10:47:42.958Z,101304.87
2018-10-21T10:50:12.452Z,101304.70
2018-10-21T10:52:41.462Z,101294.61
2018-10-21T10:55:10.874Z,101295.94
2018-10-21T10:57:39.927Z,101300.55
2018-10-21T11:00:10.308Z,101294.04
2018-10-21T11:02:39.320Z,101296.88
2018-10-21T11:05:09.136Z,101291.33
2018-10-21T11:07:38.090Z,101290.30
2018-10-21T11:10:08.355Z,101293.22
2018-10-21T11:12:38.687Z,101295.16
2018-10-21T11:15:08.402Z,101305.54
2018-10-21T11:17:38.752Z,101303.97
2018-10-21T11:20:07.766Z,101298.99
2018-10-21T11:22:36.888Z,101304.14
2018-10-21T11:25:09.407Z,101303.69
2018-10-21T11:27:38.326Z,101302.83
2018-10-21T11:30:07.488Z,101299.84
2018-10-21T11:32:36.517Z,101299.22
2018-10-21T11:35:06.070Z,101306.43
2018-10-21T11:37:35.132Z,101307.91
2018-10-21T11:40:04.123Z,101307.56
2018-10-21T11:42:33.162Z,101309.36
2018-10-21T11:45:02.408Z,101307.17
2018-10-21T11:47:31.414Z,101311.71
2018-10-21T11:50:01.718Z,101316.34
2018-10-21T11:52:30.742Z,101312.72
2018-10-21T11:54:59.737Z,101314.47
2018-10-21T11:57:28.823Z,101309.55
2018-10-21T12:00:00.399Z,101308.00
2018-10-21T12:02:29.391Z,101317.01
2018-10-21T12:04:58.363Z,101314.35
2018-10-21T12:07:27.396Z,101311.71
2018-10-21T12:09:56.665Z,101315.00
2018-10-21T12:12:26.224Z,101313.08
2018-10-21T12:14:55.283Z,101316.67
2018-10-21T12:17:24.870Z,101315.28
2018-10-21T12:19:54.531Z,101317.73
2018-10-21T12:22:24.431Z,101313.63
2018-10-21T12:24:56.304Z,101307.52
2018-10-21T12:27:28.132Z,101313.16
2018-10-21T12:29:58.403Z,101314.93
2018-10-21T12:32:30.195Z,101307.98
2018-10-21T12:34:59.971Z,101305.72
2018-10-21T12:37:29.377Z,101304.23
2018-10-21T12:39:58.997Z,101308.34
2018-10-21T12:42:36.713Z,101306.41
2018-10-21T12:45:08.693Z,101303.00
2018-10-21T12:47:40.037Z,101309.44
2018-10-21T12:50:11.388Z,101307.22
2018-10-21T12:52:49.352Z,101286.78
2018-10-21T12:55:19.896Z,101308.51
2018-10-21T12:57:49.360Z,101308.39
2018-10-21T13:00:18.851Z,101311.03
2018-10-21T13:02:49.530Z,101312.68
2018-10-21T13:05:25.628Z,101315.70
2018-10-21T13:07:55.581Z,101309.78
2018-10-21T13:10:26.491Z,101309.52
2018-10-21T13:12:56.887Z,101296.77
2018-10-21T13:15:27.624Z,101300.61
2018-10-21T13:17:57.143Z,101290.63
2018-10-21T13:20:28.118Z,101297.77
2018-10-21T13:23:00.815Z,101301.84
2018-10-21T13:25:30.542Z,101297.50
2018-10-21T13:28:00.465Z,101300.84
2018-10-21T13:30:29.861Z,101293.39
2018-10-21T13:33:00.995Z,101305.36
2018-10-21T13:35:32.350Z,101304.44
2018-10-21T13:38:02.634Z,101298.91
2018-10-21T13:40:32.690Z,101300.72
2018-10-21T13:43:04.241Z,101298.11
2018-10-21T13:45:36.289Z,101299.11
2018-10-21T13:48:12.735Z,101294.98
2018-10-21T13:50:43.968Z,101294.75
2018-10-21T13:53:14.938Z,101297.13
2018-10-21T13:55:50.234Z,101302.91
2018-10-21T13:58:19.960Z,101302.58
2018-10-21T14:00:49.393Z,101306.05
2018-10-21T14:03:18.840Z,101305.81
2018-10-21T14:05:48.404Z,101309.25
2018-10-21T14:08:18.526Z,101310.33
2018-10-21T14:10:51.765Z,101320.28
2018-10-21T14:13:22.096Z,101318.22
2018-10-21T14:15:58.165Z,101293.02
2018-10-21T14:18:29.245Z,101318.81
2018-10-21T14:21:00.944Z,101319.78
2018-10-21T14:23:33.801Z,101324.56
2018-10-21T14:26:04.114Z,101331.52
2018-10-21T14:28:41.523Z,101339.56
2018-10-21T14:31:11.819Z,101342.23
2018-10-21T14:33:43.182Z,101348.53
2018-10-21T14:36:22.936Z,101343.41
2018-10-21T14:38:53.540Z,101346.56
2018-10-21T14:41:23.979Z,101351.30
2018-10-21T14:43:53.965Z,101358.52
2018-10-21T14:46:23.567Z,101372.19
2018-10-21T14:48:53.038Z,101374.41
2018-10-21T14:51:22.906Z,101373.85
2018-10-21T14:53:53.316Z,101380.43
2018-10-21T14:56:22.944Z,101378.03
2018-10-21T14:58:53.701Z,101385.05
2018-10-21T15:01:24.257Z,101383.63
2018-10-21T15:03:55.298Z,101383.63
2018-10-21T15:06:28.147Z,101374.67
2018-10-21T15:08:58.777Z,101384.20
2018-10-21T15:11:30.623Z,101389.69
2018-10-21T15:14:01.159Z,101393.36
2018-10-21T15:16:30.724Z,101400.97
2018-10-21T15:19:07.510Z,101397.53
2018-10-21T15:21:39.333Z,101402.64
2018-10-21T15:24:11.397Z,101406.23
2018-10-21T15:26:42.273Z,101415.28
2018-10-21T15:29:12.768Z,101423.38
2018-10-21T15:31:44.090Z,101424.91
2018-10-21T15:34:14.265Z,101431.06
2018-10-21T15:36:44.682Z,101439.47
2018-10-21T15:39:14.299Z,101436.52
2018-10-21T15:41:44.807Z,101438.45
2018-10-21T15:44:14.342Z,101439.89
2018-10-21T15:46:43.996Z,101447.14
2018-10-21T15:49:16.879Z,101447.23
2018-10-21T15:51:47.493Z,101448.92
2018-10-21T15:54:19.093Z,101449.44
2018-10-21T15:56:52.416Z,101457.56
2018-10-21T15:59:22.013Z,101460.38
2018-10-21T16:01:51.588Z,101463.28
2018-10-21T16:04:23.007Z,101461.36
2018-10-21T16:06:53.922Z,101471.60
2018-10-21T16:09:26.139Z,101464.25
2018-10-21T16:11:56.536Z,101439.66
2018-10-21T16:14:30.945Z,101466.56
2018-10-21T16:17:00.502Z,101470.39
2018-10-21T16:19:31.712Z,101475.26
2018-10-21T16:22:02.631Z,101477.64
2018-10-21T16:24:37.115Z,101479.55
2018-10-21T16:27:07.477Z,101416.45
2018-10-21T16:29:36.963Z,101478.72
2018-10-21T16:32:10.116Z,101472.44
2018-10-21T16:34:41.316Z,101476.80
2018-10-21T16:37:11.769Z,101479.13
2018-10-21T16:39:43.711Z,101475.55
2018-10-21T16:42:16.392Z,101482.92
2018-10-21T16:44:45.857Z,101477.58
2018-10-21T16:47:18.430Z,101480.98
2018-10-21T16:49:49.484Z,101479.75
2018-10-21T16:52:21.941Z,101483.29
2018-10-21T16:54:54.561Z,101487.85
2018-10-21T16:57:34.075Z,101492.39
2018-10-21T17:00:08.902Z,101491.34
2018-10-21T17:02:45.477Z,101494.79
2018-10-21T17:05:18.311Z,101497.85
2018-10-21T17:07:54.119Z,101497.48
2018-10-21T17:10:28.291Z,101502.81
2018-10-21T17:13:06.293Z,101504.73
2018-10-21T17:15:41.383Z,101500.47
2018-10-21T17:20:55.004Z,101509.56
2018-10-21T17:23:27.264Z,101505.33
2018-10-21T17:26:03.061Z,101506.89
2018-10-21T17:28:34.755Z,101506.42
2018-10-21T17:31:09.107Z,101510.56
2018-10-21T17:33:43.116Z,101503.19
2018-10-21T17:36:16.102Z,101504.56
2018-10-21T17:38:56.607Z,101504.25
2018-10-21T17:41:32.134Z,101505.28
2018-10-21T17:44:05.669Z,101499.48
2018-10-21T17:46:37.228Z,101507.27
2018-10-21T17:49:17.002Z,101504.47
2018-10-21T17:51:51.506Z,101510.86
2018-10-21T17:54:25.292Z,101513.88
2018-10-21T17:57:03.217Z,101521.00
2018-10-21T17:59:38.856Z,101520.41
2018-10-21T18:02:14.942Z,101523.65
2018-10-21T18:04:58.003Z,101527.80
2018-10-21T18:07:36.057Z,101531.19
2018-10-21T18:10:09.656Z,101531.41
2018-10-21T18:12:47.490Z,101526.03
2018-10-21T18:15:27.253Z,101524.17
2018-10-21T18:18:00.601Z,101535.49
2018-10-21T18:20:36.315Z,101532.13
2018-10-21T18:23:19.655Z,101535.23
2018-10-21T18:25:56.491Z,101537.95
2018-10-21T18:28:30.656Z,101538.48
2018-10-21T18:31:04.455Z,101540.89
2018-10-21T18:33:39.375Z,101544.90
2018-10-21T18:36:12.734Z,101542.17
2018-10-21T18:38:48.755Z,101545.72
2018-10-21T18:41:23.075Z,101546.47
2018-10-21T18:43:59.311Z,101555.08
2018-10-21T18:46:49.263Z,101557.14
2018-10-21T18:49:22.992Z,101560.89
2018-10-21T18:51:58.319Z,101556.48
2018-10-21T18:54:31.841Z,101555.08
2018-10-21T18:57:06.808Z,101559.37
2018-10-21T18:59:43.829Z,101557.95
2018-10-21T19:02:17.456Z,101562.59
2018-10-21T19:04:52.273Z,101568.08
2018-10-21T19:07:26.396Z,101566.26
2018-10-21T19:10:01.890Z,101565.75
2018-10-21T19:12:40.212Z,101567.56
2018-10-21T19:15:13.818Z,101568.87
2018-10-21T19:17:55.791Z,101576.84
2018-10-21T19:20:34.039Z,101583.08
2018-10-21T19:23:05.627Z,101580.09
2018-10-21T19:25:37.385Z,101586.88
2018-10-21T19:28:09.150Z,101586.66
2018-10-21T19:30:44.458Z,101596.75
2018-10-21T19:33:22.972Z,101598.27
2018-10-21T19:35:59.248Z,101598.52
2018-10-21T19:38:33.032Z,101600.24
2018-10-21T19:41:06.991Z,101606.06
2018-10-21T19:46:24.043Z,101594.05
2018-10-21T19:48:57.104Z,101600.97
2018-10-21T19:51:31.038Z,101597.76
2018-10-21T19:54:06.700Z,101604.22
2018-10-21T19:56:38.810Z,101610.49
2018-10-21T19:59:10.081Z,101611.42
2018-10-21T20:01:51.404Z,101615.81
2018-10-21T20:04:25.741Z,101622.17
2018-10-21T20:06:59.551Z,101623.15
2018-10-21T20:09:37.055Z,101628.42
2018-10-21T20:12:14.893Z,101628.42
2018-10-21T20:14:45.853Z,101628.67
2018-10-21T20:17:22.796Z,101625.34
2018-10-21T20:19:59.092Z,101633.06
2018-10-21T20:22:34.003Z,101630.23
2018-10-21T20:25:14.556Z,101636.14
2018-10-21T20:27:49.657Z,101632.12
2018-10-21T20:30:23.670Z,101641.41
2018-10-21T20:32:58.436Z,101647.39
2018-10-21T20:35:36.218Z,101641.48
2018-10-21T20:38:08.970Z,101644.98
2018-10-21T20:40:43.845Z,101642.91
2018-10-21T20:43:18.316Z,101637.69
2018-10-21T20:45:55.722Z,101642.73
2018-10-21T20:48:28.944Z,101643.87
2018-10-21T20:51:03.618Z,101640.41
2018-10-21T20:53:54.375Z,101646.40
2018-10-21T20:56:30.797Z,101639.42
2018-10-21T20:59:06.973Z,101645.17
2018-10-21T21:01:38.178Z,101644.45
2018-10-21T21:04:10.237Z,101636.14
2018-10-21T21:06:46.453Z,101638.29
2018-10-21T21:09:22.440Z,101636.46
2018-10-21T21:11:53.170Z,101632.55
2018-10-21T21:14:28.192Z,101631.70
2018-10-21T21:17:03.618Z,101633.47
2018-10-21T21:19:40.533Z,101639.89
2018-10-21T21:22:14.328Z,101636.26
2018-10-21T21:24:48.566Z,101639.98
2018-10-21T21:27:23.017Z,101636.52
2018-10-21T21:29:55.586Z,101637.74
2018-10-21T21:32:30.340Z,101636.61
2018-10-21T21:35:11.601Z,101640.36
2018-10-21T21:37:50.840Z,101639.34
2018-10-21T21:40:26.979Z,101638.70
2018-10-21T21:43:06.364Z,101634.98
2018-10-21T21:45:41.263Z,101634.42
2018-10-21T21:48:19.603Z,101633.39
2018-10-21T21:50:59.413Z,101630.06
2018-10-21T21:53:34.539Z,101631.28
2018-10-21T21:56:05.839Z,101630.91
2018-10-21T21:58:41.648Z,101633.89
2018-10-21T22:01:13.286Z,101634.84
2018-10-21T22:03:47.181Z,101639.40
2018-10-21T22:06:22.359Z,101639.68
2018-10-21T22:09:02.423Z,101639.92
2018-10-21T22:11:35.132Z,101643.19
2018-10-21T22:14:11.010Z,101639.80
2018-10-21T22:16:46.938Z,101642.04
2018-10-21T22:19:18.705Z,101643.34
2018-10-21T22:21:54.581Z,101645.05
2018-10-21T22:24:29.310Z,101643.80
2018-10-21T22:27:04.163Z,101643.23
2018-10-21T22:29:41.686Z,101641.64
2018-10-21T22:32:17.839Z,101646.84
2018-10-21T22:34:49.153Z,101646.59
2018-10-21T22:37:26.078Z,101646.95
2018-10-21T22:40:03.273Z,101642.48
2018-10-21T22:42:41.697Z,101646.11
2018-10-21T22:45:19.629Z,101639.31
2018-10-21T22:47:55.008Z,101646.29
2018-10-21T22:50:32.038Z,101643.30
2018-10-21T22:53:04.817Z,101646.91
2018-10-21T22:55:37.251Z,101644.45
2018-10-21T22:58:13.640Z,101647.61
2018-10-21T23:00:49.690Z,101656.73
2018-10-21T23:03:22.545Z,101658.30
2018-10-21T23:08:35.535Z,101662.00
2018-10-21T23:11:10.206Z,101655.20
2018-10-21T23:13:42.213Z,101662.61
2018-10-21T23:16:14.845Z,101656.67
2018-10-21T23:18:55.593Z,101661.23
2018-10-21T23:21:28.936Z,101652.86
2018-10-21T23:24:10.209Z,101649.27
2018-10-21T23:26:41.260Z,101654.92
2018-10-21T23:29:13.373Z,101646.92
2018-10-21T23:31:48.870Z,101640.84
2018-10-21T23:34:22.008Z,101643.17
2018-10-21T23:37:03.645Z,101643.23
2018-10-21T23:39:40.585Z,101648.86
2018-10-21T23:42:17.198Z,101644.03
2018-10-21T23:44:57.045Z,101651.92
2018-10-21T23:47:30.916Z,101647.03
2018-10-21T23:50:04.147Z,101652.31
2018-10-21T23:52:43.425Z,101647.08
2018-10-21T23:55:18.108Z,101639.23
2018-10-21T23:57:50.551Z,101642.76
